sensor_id;sensor_type;location;lat;lon;timestamp;temperature;humidity
52107;DHT22;38105;52.968;5.974;2024-03-25T00:00:54;6.20;99.90
52107;DHT22;38105;52.968;5.974;2024-03-25T00:03:19;6.00;99.90
52107;DHT22;38105;52.968;5.974;2024-03-25T00:05:45;6.00;99.90
52107;DHT22;38105;52.968;5.974;2024-03-25T00:08:11;6.00;99.90
52107;DHT22;38105;52.968;5.974;2024-03-25T00:10:37;5.90;99.90
52107;DHT22;38105;52.968;5.974;2024-03-25T00:13:02;6.00;99.90
52107;DHT22;38105;52.968;5.974;2024-03-25T00:15:28;5.80;99.90
52107;DHT22;38105;52.968;5.974;2024-03-25T00:17:54;5.90;99.90
52107;DHT22;38105;52.968;5.974;2024-03-25T00:20:19;5.90;99.90
52107;DHT22;38105;52.968;5.974;2024-03-25T00:22:45;5.90;99.90
52107;DHT22;38105;52.968;5.974;2024-03-25T00:25:10;5.90;99.90
52107;DHT22;38105;52.968;5.974;2024-03-25T00:27:36;6.00;99.90
52107;DHT22;38105;52.968;5.974;2024-03-25T00:30:02;6.00;99.90
52107;DHT22;38105;52.968;5.974;2024-03-25T00:32:28;5.90;99.90
52107;DHT22;38105;52.968;5.974;2024-03-25T00:34:53;5.90;99.90
52107;DHT22;38105;52.968;5.974;2024-03-25T00:37:19;5.80;99.90
52107;DHT22;38105;52.968;5.974;2024-03-25T00:39:44;5.70;99.90
52107;DHT22;38105;52.968;5.974;2024-03-25T00:42:10;5.70;99.90
52107;DHT22;38105;52.968;5.974;2024-03-25T00:44:36;5.60;99.90
52107;DHT22;38105;52.968;5.974;2024-03-25T00:47:01;5.60;99.90
52107;DHT22;38105;52.968;5.974;2024-03-25T00:49:27;5.50;99.90
52107;DHT22;38105;52.968;5.974;2024-03-25T00:51:53;5.50;99.90
52107;DHT22;38105;52.968;5.974;2024-03-25T00:54:18;5.50;99.90
52107;DHT22;38105;52.968;5.974;2024-03-25T00:56:44;5.50;99.90
52107;DHT22;38105;52.968;5.974;2024-03-25T00:59:11;5.50;99.90
52107;DHT22;38105;52.968;5.974;2024-03-25T01:01:36;5.40;99.90
52107;DHT22;38105;52.968;5.974;2024-03-25T01:04:02;5.30;99.90
52107;DHT22;38105;52.968;5.974;2024-03-25T01:06:28;5.30;99.90
52107;DHT22;38105;52.968;5.974;2024-03-25T01:08:53;5.30;99.90
52107;DHT22;38105;52.968;5.974;2024-03-25T01:11:19;5.20;99.90
52107;DHT22;38105;52.968;5.974;2024-03-25T01:13:44;5.10;99.90
52107;DHT22;38105;52.968;5.974;2024-03-25T01:16:10;5.10;99.90
52107;DHT22;38105;52.968;5.974;2024-03-25T01:18:36;5.10;99.90
52107;DHT22;38105;52.968;5.974;2024-03-25T01:21:01;5.00;99.90
52107;DHT22;38105;52.968;5.974;2024-03-25T01:23:27;5.00;99.90
52107;DHT22;38105;52.968;5.974;2024-03-25T01:25:53;5.10;99.90
52107;DHT22;38105;52.968;5.974;2024-03-25T01:28:18;5.10;99.90
52107;DHT22;38105;52.968;5.974;2024-03-25T01:30:44;5.20;99.90
52107;DHT22;38105;52.968;5.974;2024-03-25T01:33:09;5.20;99.90
52107;DHT22;38105;52.968;5.974;2024-03-25T01:35:35;5.20;99.90
52107;DHT22;38105;52.968;5.974;2024-03-25T01:38:00;5.20;99.90
52107;DHT22;38105;52.968;5.974;2024-03-25T01:40:26;5.20;99.90
52107;DHT22;38105;52.968;5.974;2024-03-25T01:43:01;5.20;99.90
52107;DHT22;38105;52.968;5.974;2024-03-25T01:45:28;5.20;99.90
52107;DHT22;38105;52.968;5.974;2024-03-25T01:47:54;5.30;99.90
52107;DHT22;38105;52.968;5.974;2024-03-25T01:50:21;5.20;99.90
52107;DHT22;38105;52.968;5.974;2024-03-25T01:52:47;5.10;99.90
52107;DHT22;38105;52.968;5.974;2024-03-25T01:55:14;5.10;99.90
52107;DHT22;38105;52.968;5.974;2024-03-25T01:57:42;5.20;99.90
52107;DHT22;38105;52.968;5.974;2024-03-25T02:00:07;5.20;99.90
52107;DHT22;38105;52.968;5.974;2024-03-25T02:02:33;5.30;99.90
52107;DHT22;38105;52.968;5.974;2024-03-25T02:05:01;5.30;99.90
52107;DHT22;38105;52.968;5.974;2024-03-25T02:07:27;5.50;99.90
52107;DHT22;38105;52.968;5.974;2024-03-25T02:09:53;5.50;99.90
52107;DHT22;38105;52.968;5.974;2024-03-25T02:12:19;5.50;99.90
52107;DHT22;38105;52.968;5.974;2024-03-25T02:14:45;5.50;99.90
52107;DHT22;38105;52.968;5.974;2024-03-25T02:17:11;5.60;99.90
52107;DHT22;38105;52.968;5.974;2024-03-25T02:19:37;5.60;99.90
52107;DHT22;38105;52.968;5.974;2024-03-25T02:22:02;5.70;99.90
52107;DHT22;38105;52.968;5.974;2024-03-25T02:24:28;5.60;99.90
52107;DHT22;38105;52.968;5.974;2024-03-25T02:26:55;5.60;99.90
52107;DHT22;38105;52.968;5.974;2024-03-25T02:29:20;5.70;99.90
52107;DHT22;38105;52.968;5.974;2024-03-25T02:31:46;5.70;99.90
52107;DHT22;38105;52.968;5.974;2024-03-25T02:34:12;5.70;99.90
52107;DHT22;38105;52.968;5.974;2024-03-25T02:36:38;5.70;99.90
52107;DHT22;38105;52.968;5.974;2024-03-25T02:39:03;5.80;99.90
52107;DHT22;38105;52.968;5.974;2024-03-25T02:41:29;5.60;99.90
52107;DHT22;38105;52.968;5.974;2024-03-25T02:43:56;5.60;99.90
52107;DHT22;38105;52.968;5.974;2024-03-25T02:46:22;5.60;99.90
52107;DHT22;38105;52.968;5.974;2024-03-25T02:48:47;5.50;99.90
52107;DHT22;38105;52.968;5.974;2024-03-25T02:51:13;5.50;99.90
52107;DHT22;38105;52.968;5.974;2024-03-25T02:53:39;5.40;99.90
52107;DHT22;38105;52.968;5.974;2024-03-25T02:56:04;5.30;99.90
52107;DHT22;38105;52.968;5.974;2024-03-25T02:58:30;5.30;99.90
52107;DHT22;38105;52.968;5.974;2024-03-25T03:00:55;5.30;99.90
52107;DHT22;38105;52.968;5.974;2024-03-25T03:03:21;5.20;99.90
52107;DHT22;38105;52.968;5.974;2024-03-25T03:05:46;5.10;99.90
52107;DHT22;38105;52.968;5.974;2024-03-25T03:08:12;4.90;99.90
52107;DHT22;38105;52.968;5.974;2024-03-25T03:10:37;4.90;99.90
52107;DHT22;38105;52.968;5.974;2024-03-25T03:13:03;5.00;99.90
52107;DHT22;38105;52.968;5.974;2024-03-25T03:15:28;4.90;99.90
52107;DHT22;38105;52.968;5.974;2024-03-25T03:17:54;4.80;99.90
52107;DHT22;38105;52.968;5.974;2024-03-25T03:20:20;4.70;99.90
52107;DHT22;38105;52.968;5.974;2024-03-25T03:22:45;4.80;99.90
52107;DHT22;38105;52.968;5.974;2024-03-25T03:25:11;4.80;99.90
52107;DHT22;38105;52.968;5.974;2024-03-25T03:27:36;4.80;99.90
52107;DHT22;38105;52.968;5.974;2024-03-25T03:30:02;4.70;99.90
52107;DHT22;38105;52.968;5.974;2024-03-25T03:32:28;4.70;99.90
52107;DHT22;38105;52.968;5.974;2024-03-25T03:34:53;4.60;99.90
52107;DHT22;38105;52.968;5.974;2024-03-25T03:37:19;4.70;99.90
52107;DHT22;38105;52.968;5.974;2024-03-25T03:39:44;4.80;99.90
52107;DHT22;38105;52.968;5.974;2024-03-25T03:42:10;4.80;99.90
52107;DHT22;38105;52.968;5.974;2024-03-25T03:44:35;4.90;99.90
52107;DHT22;38105;52.968;5.974;2024-03-25T03:47:01;4.90;99.90
52107;DHT22;38105;52.968;5.974;2024-03-25T03:49:26;4.90;99.90
52107;DHT22;38105;52.968;5.974;2024-03-25T03:51:52;4.90;99.90
52107;DHT22;38105;52.968;5.974;2024-03-25T03:54:17;5.10;99.90
52107;DHT22;38105;52.968;5.974;2024-03-25T03:56:43;5.10;99.90
52107;DHT22;38105;52.968;5.974;2024-03-25T03:59:08;5.10;99.90
52107;DHT22;38105;52.968;5.974;2024-03-25T04:01:34;5.10;99.90
52107;DHT22;38105;52.968;5.974;2024-03-25T04:03:59;5.20;99.90
52107;DHT22;38105;52.968;5.974;2024-03-25T04:06:25;5.10;99.90
52107;DHT22;38105;52.968;5.974;2024-03-25T04:08:50;4.90;99.90
52107;DHT22;38105;52.968;5.974;2024-03-25T04:11:16;5.00;99.90
52107;DHT22;38105;52.968;5.974;2024-03-25T04:13:41;5.00;99.90
52107;DHT22;38105;52.968;5.974;2024-03-25T04:16:08;4.90;99.90
52107;DHT22;38105;52.968;5.974;2024-03-25T04:18:34;4.90;99.90
52107;DHT22;38105;52.968;5.974;2024-03-25T04:21:00;4.70;99.90
52107;DHT22;38105;52.968;5.974;2024-03-25T04:23:26;4.70;99.90
52107;DHT22;38105;52.968;5.974;2024-03-25T04:25:51;4.70;99.90
52107;DHT22;38105;52.968;5.974;2024-03-25T04:28:17;4.70;99.90
52107;DHT22;38105;52.968;5.974;2024-03-25T04:30:43;4.70;99.90
52107;DHT22;38105;52.968;5.974;2024-03-25T04:33:08;4.90;99.90
52107;DHT22;38105;52.968;5.974;2024-03-25T04:35:34;4.80;99.90
52107;DHT22;38105;52.968;5.974;2024-03-25T04:38:00;4.80;99.90
52107;DHT22;38105;52.968;5.974;2024-03-25T04:40:26;5.00;99.90
52107;DHT22;38105;52.968;5.974;2024-03-25T04:42:51;4.90;99.90
52107;DHT22;38105;52.968;5.974;2024-03-25T04:45:17;4.90;99.90
52107;DHT22;38105;52.968;5.974;2024-03-25T04:47:42;4.70;99.90
52107;DHT22;38105;52.968;5.974;2024-03-25T04:50:08;4.70;99.90
52107;DHT22;38105;52.968;5.974;2024-03-25T04:52:34;4.80;99.90
52107;DHT22;38105;52.968;5.974;2024-03-25T04:55:00;4.70;99.90
52107;DHT22;38105;52.968;5.974;2024-03-25T04:57:25;4.70;99.90
52107;DHT22;38105;52.968;5.974;2024-03-25T04:59:51;4.50;99.90
52107;DHT22;38105;52.968;5.974;2024-03-25T05:02:16;4.50;99.90
52107;DHT22;38105;52.968;5.974;2024-03-25T05:04:42;4.50;99.90
52107;DHT22;38105;52.968;5.974;2024-03-25T05:07:07;4.30;99.90
52107;DHT22;38105;52.968;5.974;2024-03-25T05:09:33;4.40;99.90
52107;DHT22;38105;52.968;5.974;2024-03-25T05:11:58;4.30;99.90
52107;DHT22;38105;52.968;5.974;2024-03-25T05:14:24;4.30;99.90
52107;DHT22;38105;52.968;5.974;2024-03-25T05:16:49;4.40;99.90
52107;DHT22;38105;52.968;5.974;2024-03-25T05:19:17;4.30;99.90
52107;DHT22;38105;52.968;5.974;2024-03-25T05:21:43;4.40;99.90
52107;DHT22;38105;52.968;5.974;2024-03-25T05:24:08;4.20;99.90
52107;DHT22;38105;52.968;5.974;2024-03-25T05:26:33;4.30;99.90
52107;DHT22;38105;52.968;5.974;2024-03-25T05:28:59;4.50;99.90
52107;DHT22;38105;52.968;5.974;2024-03-25T05:31:24;4.30;99.90
52107;DHT22;38105;52.968;5.974;2024-03-25T05:33:50;4.70;99.90
52107;DHT22;38105;52.968;5.974;2024-03-25T05:36:16;4.40;99.90
52107;DHT22;38105;52.968;5.974;2024-03-25T05:38:42;4.50;99.90
52107;DHT22;38105;52.968;5.974;2024-03-25T05:41:08;4.50;99.90
52107;DHT22;38105;52.968;5.974;2024-03-25T05:43:33;4.70;99.90
52107;DHT22;38105;52.968;5.974;2024-03-25T05:45:59;4.60;99.90
52107;DHT22;38105;52.968;5.974;2024-03-25T05:48:24;4.60;99.90
52107;DHT22;38105;52.968;5.974;2024-03-25T05:51:00;4.90;99.90
52107;DHT22;38105;52.968;5.974;2024-03-25T05:53:26;5.00;99.90
52107;DHT22;38105;52.968;5.974;2024-03-25T05:55:52;5.10;99.90
52107;DHT22;38105;52.968;5.974;2024-03-25T05:58:17;4.90;99.90
52107;DHT22;38105;52.968;5.974;2024-03-25T06:00:43;5.00;99.90
52107;DHT22;38105;52.968;5.974;2024-03-25T06:03:08;5.10;99.90
52107;DHT22;38105;52.968;5.974;2024-03-25T06:05:34;5.10;99.90
52107;DHT22;38105;52.968;5.974;2024-03-25T06:07:59;5.20;99.90
52107;DHT22;38105;52.968;5.974;2024-03-25T06:10:25;5.30;99.90
52107;DHT22;38105;52.968;5.974;2024-03-25T06:12:50;5.60;99.90
52107;DHT22;38105;52.968;5.974;2024-03-25T06:15:16;6.40;99.90
52107;DHT22;38105;52.968;5.974;2024-03-25T06:17:41;7.40;99.90
52107;DHT22;38105;52.968;5.974;2024-03-25T06:20:07;8.30;99.90
52107;DHT22;38105;52.968;5.974;2024-03-25T06:22:33;9.10;99.90
52107;DHT22;38105;52.968;5.974;2024-03-25T06:24:58;9.50;99.90
52107;DHT22;38105;52.968;5.974;2024-03-25T06:27:24;10.30;99.90
52107;DHT22;38105;52.968;5.974;2024-03-25T06:29:49;10.80;99.90
52107;DHT22;38105;52.968;5.974;2024-03-25T06:32:35;11.40;99.90
52107;DHT22;38105;52.968;5.974;2024-03-25T06:35:19;12.30;99.90
52107;DHT22;38105;52.968;5.974;2024-03-25T06:37:45;13.10;99.90
52107;DHT22;38105;52.968;5.974;2024-03-25T06:40:11;13.70;99.90
52107;DHT22;38105;52.968;5.974;2024-03-25T06:42:37;14.40;99.90
52107;DHT22;38105;52.968;5.974;2024-03-25T06:45:02;15.10;99.90
52107;DHT22;38105;52.968;5.974;2024-03-25T06:47:28;15.70;99.90
52107;DHT22;38105;52.968;5.974;2024-03-25T06:49:53;16.40;99.90
52107;DHT22;38105;52.968;5.974;2024-03-25T06:52:19;16.60;99.90
52107;DHT22;38105;52.968;5.974;2024-03-25T06:54:44;17.40;99.90
52107;DHT22;38105;52.968;5.974;2024-03-25T06:57:10;17.70;99.90
52107;DHT22;38105;52.968;5.974;2024-03-25T06:59:35;18.70;99.90
52107;DHT22;38105;52.968;5.974;2024-03-25T07:02:02;18.60;99.90
52107;DHT22;38105;52.968;5.974;2024-03-25T07:04:28;18.10;99.90
52107;DHT22;38105;52.968;5.974;2024-03-25T07:06:53;16.90;99.90
52107;DHT22;38105;52.968;5.974;2024-03-25T07:09:19;15.50;99.90
52107;DHT22;38105;52.968;5.974;2024-03-25T07:11:44;14.50;99.90
52107;DHT22;38105;52.968;5.974;2024-03-25T07:14:12;14.10;99.90
52107;DHT22;38105;52.968;5.974;2024-03-25T07:16:37;14.30;99.90
52107;DHT22;38105;52.968;5.974;2024-03-25T07:19:03;15.00;99.90
52107;DHT22;38105;52.968;5.974;2024-03-25T07:21:29;15.60;99.90
52107;DHT22;38105;52.968;5.974;2024-03-25T07:23:54;16.40;99.90
52107;DHT22;38105;52.968;5.974;2024-03-25T07:26:20;16.90;99.90
52107;DHT22;38105;52.968;5.974;2024-03-25T07:28:45;17.40;99.90
52107;DHT22;38105;52.968;5.974;2024-03-25T07:31:11;18.10;99.90
52107;DHT22;38105;52.968;5.974;2024-03-25T07:33:36;18.70;99.90
52107;DHT22;38105;52.968;5.974;2024-03-25T07:36:02;18.70;99.90
52107;DHT22;38105;52.968;5.974;2024-03-25T07:38:27;19.00;99.90
52107;DHT22;38105;52.968;5.974;2024-03-25T07:40:53;19.10;99.90
52107;DHT22;38105;52.968;5.974;2024-03-25T07:43:18;19.50;99.90
52107;DHT22;38105;52.968;5.974;2024-03-25T07:45:44;19.70;99.90
52107;DHT22;38105;52.968;5.974;2024-03-25T07:48:09;19.40;99.90
52107;DHT22;38105;52.968;5.974;2024-03-25T07:50:35;19.20;99.90
52107;DHT22;38105;52.968;5.974;2024-03-25T07:53:00;19.60;99.90
52107;DHT22;38105;52.968;5.974;2024-03-25T07:55:29;19.90;99.90
52107;DHT22;38105;52.968;5.974;2024-03-25T07:57:55;18.30;99.90
52107;DHT22;38105;52.968;5.974;2024-03-25T08:00:20;17.20;99.90
52107;DHT22;38105;52.968;5.974;2024-03-25T08:02:46;17.20;99.90
52107;DHT22;38105;52.968;5.974;2024-03-25T08:05:11;17.40;99.90
52107;DHT22;38105;52.968;5.974;2024-03-25T08:07:37;18.10;99.90
52107;DHT22;38105;52.968;5.974;2024-03-25T08:10:02;18.30;99.90
52107;DHT22;38105;52.968;5.974;2024-03-25T08:12:29;17.80;99.90
52107;DHT22;38105;52.968;5.974;2024-03-25T08:14:54;18.40;99.90
52107;DHT22;38105;52.968;5.974;2024-03-25T08:17:20;18.80;99.90
52107;DHT22;38105;52.968;5.974;2024-03-25T08:19:46;18.60;99.90
52107;DHT22;38105;52.968;5.974;2024-03-25T08:22:11;18.10;99.90
52107;DHT22;38105;52.968;5.974;2024-03-25T08:24:37;18.30;99.90
52107;DHT22;38105;52.968;5.974;2024-03-25T08:27:02;17.60;99.90
52107;DHT22;38105;52.968;5.974;2024-03-25T08:29:28;16.60;99.90
52107;DHT22;38105;52.968;5.974;2024-03-25T08:31:53;15.90;99.90
52107;DHT22;38105;52.968;5.974;2024-03-25T08:34:19;15.00;99.90
52107;DHT22;38105;52.968;5.974;2024-03-25T08:36:45;14.40;99.90
52107;DHT22;38105;52.968;5.974;2024-03-25T08:39:10;14.30;99.90
52107;DHT22;38105;52.968;5.974;2024-03-25T08:41:36;13.90;99.90
52107;DHT22;38105;52.968;5.974;2024-03-25T08:44:01;13.60;99.90
52107;DHT22;38105;52.968;5.974;2024-03-25T08:46:27;13.20;99.90
52107;DHT22;38105;52.968;5.974;2024-03-25T08:48:52;12.60;99.90
52107;DHT22;38105;52.968;5.974;2024-03-25T08:51:18;12.30;99.90
52107;DHT22;38105;52.968;5.974;2024-03-25T08:53:43;12.10;99.90
52107;DHT22;38105;52.968;5.974;2024-03-25T08:56:09;11.90;99.90
52107;DHT22;38105;52.968;5.974;2024-03-25T08:58:34;11.60;99.90
52107;DHT22;38105;52.968;5.974;2024-03-25T09:01:00;11.30;99.90
52107;DHT22;38105;52.968;5.974;2024-03-25T09:03:25;11.50;99.90
52107;DHT22;38105;52.968;5.974;2024-03-25T09:05:51;11.70;99.90
52107;DHT22;38105;52.968;5.974;2024-03-25T09:08:17;12.40;99.90
52107;DHT22;38105;52.968;5.974;2024-03-25T09:10:45;13.70;99.90
52107;DHT22;38105;52.968;5.974;2024-03-25T09:13:32;14.70;99.90
52107;DHT22;38105;52.968;5.974;2024-03-25T09:15:58;15.30;99.90
52107;DHT22;38105;52.968;5.974;2024-03-25T09:18:23;16.00;99.90
52107;DHT22;38105;52.968;5.974;2024-03-25T09:20:49;16.80;99.90
52107;DHT22;38105;52.968;5.974;2024-03-25T09:23:14;17.70;99.90
52107;DHT22;38105;52.968;5.974;2024-03-25T09:25:40;18.10;99.90
52107;DHT22;38105;52.968;5.974;2024-03-25T09:28:05;17.90;99.90
52107;DHT22;38105;52.968;5.974;2024-03-25T09:30:32;17.00;99.90
52107;DHT22;38105;52.968;5.974;2024-03-25T09:32:57;16.40;99.90
52107;DHT22;38105;52.968;5.974;2024-03-25T09:35:23;15.70;99.90
52107;DHT22;38105;52.968;5.974;2024-03-25T09:37:48;15.80;99.90
52107;DHT22;38105;52.968;5.974;2024-03-25T09:40:14;15.50;99.90
52107;DHT22;38105;52.968;5.974;2024-03-25T09:42:47;15.40;99.90
52107;DHT22;38105;52.968;5.974;2024-03-25T09:45:12;14.80;99.90
52107;DHT22;38105;52.968;5.974;2024-03-25T09:47:38;14.50;99.90
52107;DHT22;38105;52.968;5.974;2024-03-25T09:50:04;14.60;99.90
52107;DHT22;38105;52.968;5.974;2024-03-25T09:52:31;14.80;99.90
52107;DHT22;38105;52.968;5.974;2024-03-25T09:54:56;14.30;99.90
52107;DHT22;38105;52.968;5.974;2024-03-25T09:57:22;14.00;99.90
52107;DHT22;38105;52.968;5.974;2024-03-25T09:59:48;13.50;99.90
52107;DHT22;38105;52.968;5.974;2024-03-25T10:02:14;13.30;99.90
52107;DHT22;38105;52.968;5.974;2024-03-25T10:04:43;13.30;99.90
52107;DHT22;38105;52.968;5.974;2024-03-25T10:07:10;13.40;99.90
52107;DHT22;38105;52.968;5.974;2024-03-25T10:09:36;13.30;99.90
52107;DHT22;38105;52.968;5.974;2024-03-25T10:12:01;13.10;99.90
52107;DHT22;38105;52.968;5.974;2024-03-25T10:14:27;12.70;99.90
52107;DHT22;38105;52.968;5.974;2024-03-25T10:16:52;12.50;99.90
52107;DHT22;38105;52.968;5.974;2024-03-25T10:19:18;12.30;99.90
52107;DHT22;38105;52.968;5.974;2024-03-25T10:21:43;12.00;99.90
52107;DHT22;38105;52.968;5.974;2024-03-25T10:24:09;12.40;99.90
52107;DHT22;38105;52.968;5.974;2024-03-25T10:26:34;12.40;99.90
52107;DHT22;38105;52.968;5.974;2024-03-25T10:29:03;12.40;99.90
52107;DHT22;38105;52.968;5.974;2024-03-25T10:31:30;12.50;99.90
52107;DHT22;38105;52.968;5.974;2024-03-25T10:33:56;12.60;99.90
52107;DHT22;38105;52.968;5.974;2024-03-25T10:36:21;12.90;99.90
52107;DHT22;38105;52.968;5.974;2024-03-25T10:38:48;13.30;99.90
52107;DHT22;38105;52.968;5.974;2024-03-25T10:41:16;13.70;99.90
52107;DHT22;38105;52.968;5.974;2024-03-25T10:43:42;13.90;99.90
52107;DHT22;38105;52.968;5.974;2024-03-25T10:46:09;13.90;99.90
52107;DHT22;38105;52.968;5.974;2024-03-25T10:48:35;13.80;99.90
52107;DHT22;38105;52.968;5.974;2024-03-25T10:51:02;13.50;99.90
52107;DHT22;38105;52.968;5.974;2024-03-25T10:53:28;13.30;99.90
52107;DHT22;38105;52.968;5.974;2024-03-25T10:55:54;13.10;99.90
52107;DHT22;38105;52.968;5.974;2024-03-25T10:58:21;12.90;99.90
52107;DHT22;38105;52.968;5.974;2024-03-25T11:00:47;12.70;99.90
52107;DHT22;38105;52.968;5.974;2024-03-25T11:03:13;12.40;99.90
52107;DHT22;38105;52.968;5.974;2024-03-25T11:05:39;12.50;99.90
52107;DHT22;38105;52.968;5.974;2024-03-25T11:08:11;12.70;99.90
52107;DHT22;38105;52.968;5.974;2024-03-25T11:10:40;12.70;99.90
52107;DHT22;38105;52.968;5.974;2024-03-25T11:13:12;12.60;99.90
52107;DHT22;38105;52.968;5.974;2024-03-25T11:15:42;12.70;99.90
52107;DHT22;38105;52.968;5.974;2024-03-25T11:18:14;12.90;99.90
52107;DHT22;38105;52.968;5.974;2024-03-25T11:20:39;12.80;99.90
52107;DHT22;38105;52.968;5.974;2024-03-25T11:23:09;13.20;99.90
52107;DHT22;38105;52.968;5.974;2024-03-25T11:25:36;13.50;99.90
52107;DHT22;38105;52.968;5.974;2024-03-25T11:28:01;13.60;99.90
52107;DHT22;38105;52.968;5.974;2024-03-25T11:30:27;13.80;99.90
52107;DHT22;38105;52.968;5.974;2024-03-25T11:32:53;13.80;99.90
52107;DHT22;38105;52.968;5.974;2024-03-25T11:35:19;13.90;99.90
52107;DHT22;38105;52.968;5.974;2024-03-25T11:37:45;13.90;99.90
52107;DHT22;38105;52.968;5.974;2024-03-25T11:40:11;13.90;99.90
52107;DHT22;38105;52.968;5.974;2024-03-25T11:42:38;14.00;99.90
52107;DHT22;38105;52.968;5.974;2024-03-25T11:45:04;14.10;99.90
52107;DHT22;38105;52.968;5.974;2024-03-25T11:47:30;14.00;99.90
52107;DHT22;38105;52.968;5.974;2024-03-25T11:49:56;14.30;99.90
52107;DHT22;38105;52.968;5.974;2024-03-25T11:52:22;14.40;99.90
52107;DHT22;38105;52.968;5.974;2024-03-25T11:54:54;14.60;99.90
52107;DHT22;38105;52.968;5.974;2024-03-25T11:57:20;14.60;99.90
52107;DHT22;38105;52.968;5.974;2024-03-25T11:59:46;14.60;99.90
52107;DHT22;38105;52.968;5.974;2024-03-25T12:02:16;14.50;99.90
52107;DHT22;38105;52.968;5.974;2024-03-25T12:04:42;14.60;99.90
52107;DHT22;38105;52.968;5.974;2024-03-25T12:07:10;14.70;99.90
52107;DHT22;38105;52.968;5.974;2024-03-25T12:09:35;14.50;99.90
52107;DHT22;38105;52.968;5.974;2024-03-25T12:12:19;14.40;99.90
52107;DHT22;38105;52.968;5.974;2024-03-25T12:14:45;14.30;99.90
52107;DHT22;38105;52.968;5.974;2024-03-25T12:17:11;14.10;99.90
52107;DHT22;38105;52.968;5.974;2024-03-25T12:19:36;14.00;99.90
52107;DHT22;38105;52.968;5.974;2024-03-25T12:22:02;14.00;99.90
52107;DHT22;38105;52.968;5.974;2024-03-25T12:24:30;14.00;99.90
52107;DHT22;38105;52.968;5.974;2024-03-25T12:26:56;14.00;99.90
52107;DHT22;38105;52.968;5.974;2024-03-25T12:29:22;13.90;99.90
52107;DHT22;38105;52.968;5.974;2024-03-25T12:31:56;13.90;99.90
52107;DHT22;38105;52.968;5.974;2024-03-25T12:34:22;13.90;99.90
52107;DHT22;38105;52.968;5.974;2024-03-25T12:36:48;14.00;99.90
52107;DHT22;38105;52.968;5.974;2024-03-25T12:39:17;13.90;99.90
52107;DHT22;38105;52.968;5.974;2024-03-25T12:41:44;14.10;99.90
52107;DHT22;38105;52.968;5.974;2024-03-25T12:44:11;14.20;99.90
52107;DHT22;38105;52.968;5.974;2024-03-25T12:46:37;14.30;99.90
52107;DHT22;38105;52.968;5.974;2024-03-25T12:49:04;14.30;99.90
52107;DHT22;38105;52.968;5.974;2024-03-25T12:51:30;14.30;99.90
52107;DHT22;38105;52.968;5.974;2024-03-25T12:53:56;14.40;99.90
52107;DHT22;38105;52.968;5.974;2024-03-25T12:56:21;14.40;99.90
52107;DHT22;38105;52.968;5.974;2024-03-25T12:58:47;14.30;99.90
52107;DHT22;38105;52.968;5.974;2024-03-25T13:01:13;14.30;99.90
52107;DHT22;38105;52.968;5.974;2024-03-25T13:03:39;14.30;99.90
52107;DHT22;38105;52.968;5.974;2024-03-25T13:06:04;14.40;99.90
52107;DHT22;38105;52.968;5.974;2024-03-25T13:08:30;14.20;99.90
52107;DHT22;38105;52.968;5.974;2024-03-25T13:10:55;14.20;99.90
52107;DHT22;38105;52.968;5.974;2024-03-25T13:13:21;14.30;99.90
52107;DHT22;38105;52.968;5.974;2024-03-25T13:15:46;14.20;99.90
52107;DHT22;38105;52.968;5.974;2024-03-25T13:18:12;14.20;99.90
52107;DHT22;38105;52.968;5.974;2024-03-25T13:20:38;14.20;99.90
52107;DHT22;38105;52.968;5.974;2024-03-25T13:23:03;14.20;99.90
52107;DHT22;38105;52.968;5.974;2024-03-25T13:25:29;14.40;99.90
52107;DHT22;38105;52.968;5.974;2024-03-25T13:27:56;14.10;99.90
52107;DHT22;38105;52.968;5.974;2024-03-25T13:30:22;14.10;99.90
52107;DHT22;38105;52.968;5.974;2024-03-25T13:32:50;14.10;99.90
52107;DHT22;38105;52.968;5.974;2024-03-25T13:35:15;14.20;99.90
52107;DHT22;38105;52.968;5.974;2024-03-25T13:37:41;14.30;99.90
52107;DHT22;38105;52.968;5.974;2024-03-25T13:40:07;14.20;99.90
52107;DHT22;38105;52.968;5.974;2024-03-25T13:42:32;14.20;99.90
52107;DHT22;38105;52.968;5.974;2024-03-25T13:44:58;14.10;99.90
52107;DHT22;38105;52.968;5.974;2024-03-25T13:47:23;13.90;99.90
52107;DHT22;38105;52.968;5.974;2024-03-25T13:49:49;13.80;99.90
52107;DHT22;38105;52.968;5.974;2024-03-25T13:52:15;13.90;99.90
52107;DHT22;38105;52.968;5.974;2024-03-25T13:54:40;14.00;99.90
52107;DHT22;38105;52.968;5.974;2024-03-25T13:57:06;13.70;99.90
52107;DHT22;38105;52.968;5.974;2024-03-25T13:59:31;13.40;99.90
52107;DHT22;38105;52.968;5.974;2024-03-25T14:01:57;13.60;99.90
52107;DHT22;38105;52.968;5.974;2024-03-25T14:04:23;13.60;99.90
52107;DHT22;38105;52.968;5.974;2024-03-25T14:06:48;13.50;99.90
52107;DHT22;38105;52.968;5.974;2024-03-25T14:09:24;13.50;99.90
52107;DHT22;38105;52.968;5.974;2024-03-25T14:11:50;13.40;99.90
52107;DHT22;38105;52.968;5.974;2024-03-25T14:14:15;13.40;99.90
52107;DHT22;38105;52.968;5.974;2024-03-25T14:16:41;13.50;99.90
52107;DHT22;38105;52.968;5.974;2024-03-25T14:19:06;13.60;99.90
52107;DHT22;38105;52.968;5.974;2024-03-25T14:21:32;13.40;99.90
52107;DHT22;38105;52.968;5.974;2024-03-25T14:23:57;13.50;99.90
52107;DHT22;38105;52.968;5.974;2024-03-25T14:26:23;13.40;99.90
52107;DHT22;38105;52.968;5.974;2024-03-25T14:28:48;13.20;99.90
52107;DHT22;38105;52.968;5.974;2024-03-25T14:31:14;13.10;99.90
52107;DHT22;38105;52.968;5.974;2024-03-25T14:33:39;13.10;99.90
52107;DHT22;38105;52.968;5.974;2024-03-25T14:36:05;13.20;99.90
52107;DHT22;38105;52.968;5.974;2024-03-25T14:38:30;13.30;99.90
52107;DHT22;38105;52.968;5.974;2024-03-25T14:40:56;13.20;99.90
52107;DHT22;38105;52.968;5.974;2024-03-25T14:43:21;13.20;99.90
52107;DHT22;38105;52.968;5.974;2024-03-25T14:45:47;13.20;99.90
52107;DHT22;38105;52.968;5.974;2024-03-25T14:48:12;13.30;99.90
52107;DHT22;38105;52.968;5.974;2024-03-25T14:50:38;13.40;99.90
52107;DHT22;38105;52.968;5.974;2024-03-25T14:53:04;13.50;99.90
52107;DHT22;38105;52.968;5.974;2024-03-25T14:55:30;13.40;99.90
52107;DHT22;38105;52.968;5.974;2024-03-25T14:57:55;13.50;99.90
52107;DHT22;38105;52.968;5.974;2024-03-25T15:00:21;13.60;99.90
52107;DHT22;38105;52.968;5.974;2024-03-25T15:02:47;13.60;99.90
52107;DHT22;38105;52.968;5.974;2024-03-25T15:05:12;13.60;99.90
52107;DHT22;38105;52.968;5.974;2024-03-25T15:07:38;13.50;99.90
52107;DHT22;38105;52.968;5.974;2024-03-25T15:10:03;13.30;99.90
52107;DHT22;38105;52.968;5.974;2024-03-25T15:12:29;13.20;99.90
52107;DHT22;38105;52.968;5.974;2024-03-25T15:14:54;13.00;99.90
52107;DHT22;38105;52.968;5.974;2024-03-25T15:17:20;12.80;99.90
52107;DHT22;38105;52.968;5.974;2024-03-25T15:19:45;12.60;99.90
52107;DHT22;38105;52.968;5.974;2024-03-25T15:22:11;12.50;99.90
52107;DHT22;38105;52.968;5.974;2024-03-25T15:24:36;12.40;99.90
52107;DHT22;38105;52.968;5.974;2024-03-25T15:27:02;12.40;99.90
52107;DHT22;38105;52.968;5.974;2024-03-25T15:29:27;12.50;99.90